Aviation Digital Data Service (ADDS)

Output produced by METARs form (0747 UTC 21 November 2017)
found at http://www.aviationweather.gov/adds/metars/
 
METAR text: RJNK 210700Z 05005KT 9999 FEW020 SCT050 09/M04 Q1025
Conditions at: RJNK (KOMATSU (CIV/JAS, JP) observed 0700 UTC 21 November 2017
Temperature: 9.0°C (48°F)
Dewpoint: -4.0°C (25°F) [RH = 40%]
Pressure (altimeter): 30.27 inches Hg (1025.0 mb)
Winds: from the NE (50 degrees) at 6 MPH (5 knots; 2.6 m/s)
Visibility: 6 or more miles (10+ km)
Ceiling: at least 12,000 feet AGL
Clouds: few clouds at 2000 feet AGL
scattered clouds at 5000 feet AGL
Weather: no significant weather observed at this time